Time;durP1;ratioP1;P1;durP2;ratioP2;P2;SDS_P1;SDS_P2;PMS_P1;PMS_P2;Temp;Humidity;BMP_temperature;BMP_pressure;BME280_temperature;BME280_humidity;BME280_pressure;Samples;Min_cycle;Max_cycle;Signal;HPM_P1;HPM_P2
2022/03/06 00:02:21;;;;;;;22.10;11.50;;;-1.20;87.30;;;;;;5003164;28;20030;-81
2022/03/06 00:04:47;;;;;;;25.83;12.02;;;-1.20;87.50;;;;;;5003940;28;20037;-81
2022/03/06 00:07:13;;;;;;;22.27;11.30;;;-1.20;87.90;;;;;;5001276;28;20030;-80
2022/03/06 00:09:38;;;;;;;26.15;13.77;;;-1.20;88.20;;;;;;5004808;28;20022;-82
2022/03/06 00:12:05;;;;;;;24.02;12.65;;;-1.20;88.70;;;;;;5004032;28;20045;-81
2022/03/06 00:14:30;;;;;;;27.35;12.43;;;-1.20;89.00;;;;;;5004842;28;20019;-81
2022/03/06 00:16:57;;;;;;;23.50;12.48;;;-1.20;89.30;;;;;;5002774;28;20058;-83
2022/03/06 00:19:22;;;;;;;28.77;12.93;;;-1.20;89.60;;;;;;5001556;28;20038;-81
2022/03/06 00:21:48;;;;;;;27.88;12.40;;;-1.20;90.00;;;;;;5001289;28;20105;-81
2022/03/06 00:24:14;;;;;;;23.85;12.93;;;-1.20;90.20;;;;;;5001302;28;20434;-80
2022/03/06 00:26:40;;;;;;;24.48;11.35;;;-1.20;90.40;;;;;;5001970;28;20050;-81
2022/03/06 00:29:06;;;;;;;26.88;13.30;;;-1.30;90.40;;;;;;5001256;28;20081;-81
2022/03/06 00:31:32;;;;;;;23.20;12.55;;;-1.30;90.70;;;;;;5001008;28;20113;-81
2022/03/06 00:33:58;;;;;;;27.05;13.57;;;-1.30;90.80;;;;;;5000659;28;20038;-81
2022/03/06 00:36:24;;;;;;;25.83;13.43;;;-1.30;91.00;;;;;;5001011;28;20022;-81
2022/03/06 00:38:50;;;;;;;26.25;13.50;;;-1.30;91.20;;;;;;5001325;28;20034;-81
2022/03/06 00:41:16;;;;;;;27.25;12.88;;;-1.30;91.40;;;;;;5002984;28;20031;-80
2022/03/06 00:43:42;;;;;;;27.33;13.13;;;-1.30;91.50;;;;;;5000400;28;20109;-81
2022/03/06 00:46:08;;;;;;;25.48;12.30;;;-1.30;91.60;;;;;;5001381;28;20038;-81
2022/03/06 00:48:34;;;;;;;24.55;12.98;;;-1.40;91.80;;;;;;5003464;28;20069;-80
2022/03/06 00:51:00;;;;;;;26.38;13.63;;;-1.40;91.90;;;;;;5002714;28;20034;-81
2022/03/06 00:53:26;;;;;;;25.15;11.88;;;-1.40;92.10;;;;;;4999691;28;20049;-80
2022/03/06 00:55:51;;;;;;;27.80;13.52;;;-1.40;92.30;;;;;;5001989;28;20030;-81
2022/03/06 00:58:17;;;;;;;24.95;12.80;;;-1.40;92.40;;;;;;5000728;28;20042;-81
2022/03/06 01:00:46;;;;;;;23.88;12.82;;;-1.40;92.50;;;;;;5001172;28;20061;-81
2022/03/06 01:03:15;;;;;;;25.80;12.57;;;-1.40;92.60;;;;;;5001664;28;20492;-81
2022/03/06 01:05:41;;;;;;;26.70;12.23;;;-1.40;92.70;;;;;;5000101;28;20068;-81
2022/03/06 01:08:08;;;;;;;27.45;13.70;;;-1.40;92.90;;;;;;5018991;28;20030;-81
2022/03/06 01:10:36;;;;;;;27.63;12.50;;;-1.40;92.90;;;;;;5022039;28;20126;-81
2022/03/06 01:13:02;;;;;;;27.42;13.20;;;-1.40;92.90;;;;;;5022613;28;20109;-81
2022/03/06 01:15:28;;;;;;;27.65;14.43;;;-1.40;93.00;;;;;;5023133;28;20026;-81
2022/03/06 01:17:54;;;;;;;23.35;13.23;;;-1.40;93.10;;;;;;5021375;28;20029;-80
2022/03/06 01:20:20;;;;;;;27.88;13.43;;;-1.50;93.20;;;;;;5032760;28;20107;-81
2022/03/06 01:22:47;;;;;;;32.33;14.18;;;-1.50;93.40;;;;;;5029793;28;20030;-82
2022/03/06 01:25:14;;;;;;;27.15;14.15;;;-1.40;93.40;;;;;;5025085;28;20026;-80
2022/03/06 01:27:39;;;;;;;29.23;13.05;;;-1.40;93.60;;;;;;5022964;28;20030;-81
2022/03/06 01:30:08;;;;;;;27.25;13.43;;;-1.40;93.60;;;;;;5024378;28;20037;-81
2022/03/06 01:32:34;;;;;;;26.27;13.00;;;-1.50;93.80;;;;;;5029056;28;20081;-81
2022/03/06 01:35:00;;;;;;;28.15;13.68;;;-1.50;93.80;;;;;;5024312;28;20029;-80
2022/03/06 01:37:26;;;;;;;29.80;14.10;;;-1.50;94.00;;;;;;5021606;28;20129;-80
2022/03/06 01:39:53;;;;;;;28.13;14.75;;;-1.60;94.20;;;;;;5010362;28;20027;-82
2022/03/06 01:42:19;;;;;;;25.40;12.90;;;-1.60;94.40;;;;;;5004559;28;20103;-80
2022/03/06 01:44:46;;;;;;;33.35;15.60;;;-1.60;94.40;;;;;;5005331;28;20027;-82
2022/03/06 01:47:12;;;;;;;29.67;14.57;;;-1.60;94.50;;;;;;5006811;28;20022;-81
2022/03/06 01:49:38;;;;;;;28.17;14.68;;;-1.60;94.60;;;;;;5005796;28;20042;-81
2022/03/06 01:52:04;;;;;;;29.58;14.32;;;-1.60;94.80;;;;;;5011478;28;20053;-81
2022/03/06 01:54:30;;;;;;;31.70;15.45;;;-1.60;94.70;;;;;;5006279;28;20105;-80
2022/03/06 01:56:55;;;;;;;27.95;13.57;;;-1.60;94.80;;;;;;5006546;28;20030;-80
2022/03/06 01:59:24;;;;;;;27.05;13.98;;;-1.70;95.10;;;;;;5005762;28;20097;-80
2022/03/06 02:01:49;;;;;;;33.42;14.80;;;-1.70;95.10;;;;;;5005751;28;20028;-81
2022/03/06 02:04:15;;;;;;;27.00;14.25;;;-1.70;95.20;;;;;;5008390;28;20054;-80
2022/03/06 02:06:42;;;;;;;26.88;13.98;;;-1.70;95.40;;;;;;5015109;28;20026;-80
2022/03/06 02:09:08;;;;;;;29.92;14.20;;;-1.70;95.50;;;;;;5014130;28;20034;-81
2022/03/06 02:11:34;;;;;;;28.27;14.18;;;-1.80;95.60;;;;;;5015605;28;20137;-80
2022/03/06 02:14:02;;;;;;;28.58;13.15;;;-1.80;95.70;;;;;;5014924;28;20045;-79
2022/03/06 02:16:31;;;;;;;28.17;14.27;;;-1.80;95.90;;;;;;5014835;28;20049;-80
2022/03/06 02:18:57;;;;;;;27.13;13.82;;;-1.80;96.00;;;;;;5017078;28;20030;-80
2022/03/06 02:21:23;;;;;;;30.17;15.50;;;-1.80;96.10;;;;;;5014452;28;20045;-80
2022/03/06 02:23:48;;;;;;;32.35;15.05;;;-1.80;96.20;;;;;;5015744;28;20034;-80
2022/03/06 02:26:14;;;;;;;33.22;14.73;;;-1.80;96.40;;;;;;5017387;28;20038;-80
2022/03/06 02:28:42;;;;;;;35.75;15.48;;;-1.80;96.30;;;;;;5012323;28;20092;-80
2022/03/06 02:31:10;;;;;;;27.38;14.93;;;-1.80;96.30;;;;;;5005277;28;20049;-80
2022/03/06 02:33:36;;;;;;;32.55;14.77;;;-1.80;96.40;;;;;;5004968;28;20037;-81
2022/03/06 02:36:01;;;;;;;31.27;14.60;;;-1.80;96.50;;;;;;5001734;28;20113;-80
2022/03/06 02:38:27;;;;;;;30.67;14.90;;;-1.90;96.60;;;;;;5017740;28;20026;-79
2022/03/06 02:40:53;;;;;;;31.38;14.27;;;-1.90;96.70;;;;;;5018647;28;20037;-81
2022/03/06 02:43:20;;;;;;;27.95;14.00;;;-1.90;96.70;;;;;;5018123;28;20050;-80
2022/03/06 02:45:46;;;;;;;27.10;14.13;;;-1.90;97.10;;;;;;5016002;28;20026;-80
2022/03/06 02:48:12;;;;;;;26.88;14.05;;;-2.00;96.90;;;;;;5016054;28;20041;-80
2022/03/06 02:50:38;;;;;;;31.98;14.73;;;-2.00;97.00;;;;;;5010186;28;20488;-81
2022/03/06 02:53:07;;;;;;;30.67;14.55;;;-2.10;97.40;;;;;;5023690;28;20022;-80
2022/03/06 02:55:32;;;;;;;29.08;14.38;;;-2.10;97.20;;;;;;5004832;28;20046;-80
2022/03/06 02:57:58;;;;;;;27.92;14.13;;;-2.20;97.40;;;;;;5002850;28;20545;-80
2022/03/06 03:00:25;;;;;;;32.50;15.50;;;-2.20;97.50;;;;;;5004446;28;20034;-81
2022/03/06 03:02:51;;;;;;;30.45;14.25;;;-2.30;97.60;;;;;;5004616;28;20037;-81
2022/03/06 03:05:18;;;;;;;27.77;13.23;;;-2.30;97.80;;;;;;5004843;28;20435;-80
2022/03/06 03:07:50;;;;;;;25.02;12.98;;;-2.40;97.80;;;;;;5016051;28;20080;-81
2022/03/06 03:10:19;;;;;;;30.42;12.88;;;-2.40;97.90;;;;;;5007972;28;20074;-80
2022/03/06 03:12:45;;;;;;;24.98;12.45;;;-2.50;98.00;;;;;;5001353;28;20054;-80
2022/03/06 03:15:11;;;;;;;29.60;13.60;;;-2.50;98.10;;;;;;5002506;28;20030;-80
2022/03/06 03:17:37;;;;;;;32.17;15.63;;;-2.50;98.10;;;;;;5003214;28;20054;-80
2022/03/06 03:20:05;;;;;;;30.17;14.73;;;-2.50;98.30;;;;;;5006149;28;20026;-80
2022/03/06 03:22:30;;;;;;;32.80;14.40;;;-2.50;98.30;;;;;;5001267;28;20018;-82
2022/03/06 03:24:56;;;;;;;27.80;13.88;;;-2.50;98.30;;;;;;5006256;28;20069;-81
2022/03/06 03:27:22;;;;;;;30.08;13.85;;;-2.50;98.40;;;;;;4999790;28;20018;-80
2022/03/06 03:29:48;;;;;;;30.30;13.65;;;-2.40;98.50;;;;;;5005434;28;20026;-81
2022/03/06 03:32:13;;;;;;;34.28;14.52;;;-2.40;98.50;;;;;;5002899;28;20015;-81
2022/03/06 03:34:39;;;;;;;28.30;14.25;;;-2.40;98.60;;;;;;5001818;28;20049;-80
2022/03/06 03:37:05;;;;;;;30.65;15.32;;;-2.40;98.60;;;;;;5010724;28;20037;-80
2022/03/06 03:39:31;;;;;;;30.25;14.75;;;-2.40;98.60;;;;;;5002055;28;20081;-80
2022/03/06 03:41:57;;;;;;;32.95;14.10;;;-2.40;98.60;;;;;;5001875;28;20030;-79
2022/03/06 03:44:23;;;;;;;29.17;14.27;;;-2.40;98.60;;;;;;5002397;28;20394;-80
2022/03/06 03:46:48;;;;;;;29.92;15.05;;;-2.40;98.60;;;;;;5002673;28;20026;-80
2022/03/06 03:49:14;;;;;;;31.02;14.38;;;-2.40;98.70;;;;;;5000544;28;20037;-80
2022/03/06 03:51:41;;;;;;;34.28;15.80;;;-2.40;98.80;;;;;;5002140;28;20522;-80
2022/03/06 03:54:08;;;;;;;32.05;14.00;;;-2.30;98.80;;;;;;5017293;28;20038;-80
2022/03/06 03:56:34;;;;;;;31.10;14.70;;;-2.30;98.80;;;;;;5005034;28;20037;-81
2022/03/06 03:58:59;;;;;;;31.33;15.48;;;-2.30;98.80;;;;;;5010897;28;20463;-80
2022/03/06 04:01:25;;;;;;;29.00;15.10;;;-2.30;98.80;;;;;;5006469;28;20041;-80
2022/03/06 04:03:51;;;;;;;30.23;14.50;;;-2.30;98.80;;;;;;5002511;28;20037;-80
2022/03/06 04:06:17;;;;;;;32.20;14.82;;;-2.30;98.80;;;;;;5004100;28;20463;-79
2022/03/06 04:08:43;;;;;;;31.55;14.25;;;-2.20;98.80;;;;;;5005511;28;20037;-80
2022/03/06 04:11:09;;;;;;;30.92;15.00;;;-2.20;98.80;;;;;;5021247;28;20026;-80
2022/03/06 04:13:35;;;;;;;35.33;15.65;;;-2.20;98.80;;;;;;5018816;28;20030;-79
2022/03/06 04:16:00;;;;;;;28.88;14.43;;;-2.20;98.90;;;;;;5020559;28;20076;-81
2022/03/06 04:18:26;;;;;;;30.80;14.57;;;-2.10;98.80;;;;;;5020017;28;20423;-81
2022/03/06 04:20:52;;;;;;;27.83;15.40;;;-2.20;98.70;;;;;;5023611;28;20185;-81
2022/03/06 04:23:18;;;;;;;34.83;16.90;;;-2.20;98.70;;;;;;5022646;28;20038;-81
2022/03/06 04:25:43;;;;;;;32.13;15.88;;;-2.20;98.80;;;;;;5022081;28;20037;-82
2022/03/06 04:28:09;;;;;;;29.33;14.48;;;-2.20;98.80;;;;;;5022502;28;20069;-81
2022/03/06 04:30:35;;;;;;;31.40;14.93;;;-2.30;98.80;;;;;;5022759;28;20471;-80
2022/03/06 04:33:01;;;;;;;31.13;14.95;;;-2.30;99.00;;;;;;5021787;28;20025;-81
2022/03/06 04:35:27;;;;;;;36.05;15.82;;;-2.30;99.10;;;;;;5022674;28;20406;-81
2022/03/06 04:37:53;;;;;;;31.25;14.32;;;-2.30;99.20;;;;;;5025687;28;20153;-80
2022/03/06 04:40:19;;;;;;;34.88;14.63;;;-2.30;99.30;;;;;;5025435;28;20030;-81
2022/03/06 04:42:44;;;;;;;32.58;14.43;;;-2.30;99.40;;;;;;5021808;28;20029;-81
2022/03/06 04:45:10;;;;;;;28.38;14.30;;;-2.30;99.50;;;;;;5023004;28;20446;-80
2022/03/06 04:47:37;;;;;;;31.45;15.10;;;-2.40;99.50;;;;;;5019443;28;20028;-80
2022/03/06 04:50:04;;;;;;;27.48;13.40;;;-2.40;99.60;;;;;;5018366;28;20030;-80
2022/03/06 04:52:30;;;;;;;29.38;14.10;;;-2.40;99.70;;;;;;5023182;28;20032;-80
2022/03/06 04:54:55;;;;;;;31.77;15.45;;;-2.40;99.70;;;;;;5020975;28;20022;-81
2022/03/06 04:57:21;;;;;;;29.63;14.50;;;-2.50;99.80;;;;;;5022489;28;20036;-81
2022/03/06 04:59:47;;;;;;;28.75;14.52;;;-2.50;99.90;;;;;;5020783;28;20029;-80
2022/03/06 05:02:12;;;;;;;30.17;14.35;;;-2.50;99.90;;;;;;5035640;28;20471;-80
2022/03/06 05:04:38;;;;;;;31.65;16.10;;;-2.50;99.90;;;;;;5020276;28;20017;-81
2022/03/06 05:07:04;;;;;;;33.00;14.40;;;-2.50;99.90;;;;;;5022074;28;20088;-81
2022/03/06 05:09:30;;;;;;;34.88;15.10;;;-2.50;99.90;;;;;;5023861;28;20037;-81
2022/03/06 05:11:56;;;;;;;30.15;15.10;;;-2.50;99.90;;;;;;5037224;28;20419;-80
2022/03/06 05:14:21;;;;;;;33.88;15.15;;;-2.50;99.90;;;;;;5021106;28;20026;-80
2022/03/06 05:16:47;;;;;;;28.85;14.57;;;-2.50;99.90;;;;;;5021520;28;20462;-80
2022/03/06 05:19:13;;;;;;;30.60;14.25;;;-2.50;99.90;;;;;;5022426;28;20040;-80
2022/03/06 05:21:38;;;;;;;35.25;15.25;;;-2.50;99.90;;;;;;5023973;28;20026;-81
2022/03/06 05:24:05;;;;;;;33.95;14.55;;;-2.50;99.90;;;;;;5026474;28;20040;-82
2022/03/06 05:26:31;;;;;;;32.58;14.32;;;-2.50;99.90;;;;;;5024498;28;20026;-82
2022/03/06 05:28:57;;;;;;;35.80;15.13;;;-2.50;99.90;;;;;;5025109;28;20040;-82
2022/03/06 05:31:22;;;;;;;30.98;15.00;;;-2.50;99.90;;;;;;5024752;28;20022;-82
2022/03/06 05:33:48;;;;;;;36.42;15.75;;;-2.50;99.90;;;;;;5022911;28;20037;-81
2022/03/06 05:36:14;;;;;;;30.20;14.10;;;-2.50;99.90;;;;;;5027129;28;20141;-81
2022/03/06 05:38:40;;;;;;;27.70;13.82;;;-2.50;99.90;;;;;;5026581;28;20041;-81
2022/03/06 05:41:05;;;;;;;35.25;16.00;;;-2.50;99.90;;;;;;5024653;28;20034;-81
2022/03/06 05:43:31;;;;;;;28.25;14.07;;;-2.50;99.90;;;;;;5039648;28;20018;-82
2022/03/06 05:45:58;;;;;;;28.88;15.30;;;-2.50;99.90;;;;;;5023605;28;20060;-83
2022/03/06 05:48:24;;;;;;;29.20;13.93;;;-2.40;99.90;;;;;;5028389;28;20022;-82
2022/03/06 05:50:50;;;;;;;30.38;14.00;;;-2.40;99.90;;;;;;5023059;28;20036;-81
2022/03/06 05:53:16;;;;;;;27.15;14.05;;;-2.40;99.90;;;;;;5038498;28;20420;-81
2022/03/06 05:55:41;;;;;;;31.70;13.63;;;-2.40;99.90;;;;;;5025045;28;20053;-81
2022/03/06 05:58:07;;;;;;;30.35;13.57;;;-2.40;99.90;;;;;;5028819;28;20524;-82
2022/03/06 06:00:35;;;;;;;30.67;14.82;;;-2.30;99.90;;;;;;5023237;28;20095;-82
2022/03/06 06:03:02;;;;;;;29.77;13.77;;;-2.30;99.80;;;;;;5024889;28;20064;-81
2022/03/06 06:05:28;;;;;;;26.42;12.88;;;-2.30;99.60;;;;;;5041750;28;20026;-82
2022/03/06 06:07:54;;;;;;;26.02;12.57;;;-2.30;99.40;;;;;;5010289;28;20026;-80
2022/03/06 06:10:20;;;;;;;28.90;14.13;;;-2.20;99.40;;;;;;5006987;28;20439;-81
2022/03/06 06:12:46;;;;;;;36.75;15.15;;;-2.20;99.30;;;;;;5006343;28;20022;-81
2022/03/06 06:15:12;;;;;;;35.38;14.50;;;-2.20;98.90;;;;;;5006283;28;20538;-82
2022/03/06 06:17:38;;;;;;;32.17;14.68;;;-2.10;98.70;;;;;;5021194;28;20093;-82
2022/03/06 06:20:05;;;;;;;28.73;12.85;;;-2.10;98.60;;;;;;5006007;28;20062;-80
2022/03/06 06:22:31;;;;;;;29.00;13.13;;;-2.00;98.60;;;;;;5007196;28;20077;-81
2022/03/06 06:25:01;;;;;;;29.42;13.88;;;-2.00;98.50;;;;;;5004282;28;20106;-81
2022/03/06 06:27:27;;;;;;;26.33;13.95;;;-1.90;98.40;;;;;;5003240;28;20033;-81
2022/03/06 06:29:54;;;;;;;31.65;13.95;;;-1.90;98.20;;;;;;5020253;28;20027;-82
2022/03/06 06:32:20;;;;;;;27.48;13.13;;;-1.80;97.80;;;;;;5004884;28;20090;-81
2022/03/06 06:34:46;;;;;;;28.15;13.98;;;-1.80;97.60;;;;;;5008096;28;20033;-81
2022/03/06 06:37:13;;;;;;;25.67;13.48;;;-1.80;97.50;;;;;;5008036;28;20019;-80
2022/03/06 06:39:38;;;;;;;36.05;14.20;;;-1.70;97.30;;;;;;5012951;28;20033;-81
2022/03/06 06:42:05;;;;;;;27.50;14.02;;;-1.70;97.10;;;;;;5028430;28;20006;-81
2022/03/06 06:44:31;;;;;;;27.13;13.10;;;-1.70;96.70;;;;;;5027607;28;20052;-81
2022/03/06 06:46:57;;;;;;;28.42;13.48;;;-1.60;96.60;;;;;;5025490;28;20056;-81
2022/03/06 06:49:23;;;;;;;31.42;14.63;;;-1.60;96.60;;;;;;5024523;28;20030;-80
2022/03/06 06:51:49;;;;;;;25.92;13.38;;;-1.60;96.50;;;;;;5035343;28;20089;-82
2022/03/06 06:54:15;;;;;;;27.67;13.45;;;-1.50;96.50;;;;;;5030362;28;20493;-82
2022/03/06 06:56:42;;;;;;;25.98;12.55;;;-1.40;96.30;;;;;;5030320;28;20097;-82
2022/03/06 06:59:08;;;;;;;27.88;13.05;;;-1.40;96.10;;;;;;5029586;28;20061;-82
2022/03/06 07:01:34;;;;;;;28.95;13.63;;;-1.30;95.90;;;;;;5029147;28;20033;-79
2022/03/06 07:04:00;;;;;;;25.95;12.23;;;-1.30;95.70;;;;;;5027587;28;20565;-81
2022/03/06 07:06:26;;;;;;;23.02;11.93;;;-1.30;95.50;;;;;;5042918;28;20057;-81
2022/03/06 07:08:52;;;;;;;29.13;13.15;;;-1.20;95.40;;;;;;5027228;28;20042;-82
2022/03/06 07:11:17;;;;;;;26.10;12.90;;;-1.10;95.20;;;;;;5025418;28;20030;-82
2022/03/06 07:13:43;;;;;;;26.05;13.30;;;-1.00;94.70;;;;;;5024142;28;20041;-82
2022/03/06 07:16:09;;;;;;;24.38;12.18;;;-1.00;94.30;;;;;;5025469;28;20022;-80
2022/03/06 07:18:35;;;;;;;28.27;13.38;;;-1.00;94.20;;;;;;5024324;28;20030;-81
2022/03/06 07:21:02;;;;;;;28.75;14.10;;;-1.00;93.70;;;;;;5026839;28;20506;-81
2022/03/06 07:23:29;;;;;;;29.15;13.38;;;-1.00;93.80;;;;;;5026038;28;20467;-82
2022/03/06 07:25:55;;;;;;;29.88;13.95;;;-1.00;93.90;;;;;;5024584;28;20025;-81
2022/03/06 07:28:21;;;;;;;25.00;12.77;;;-1.00;93.90;;;;;;5023635;28;20096;-82
2022/03/06 07:30:48;;;;;;;27.33;13.23;;;-1.00;93.40;;;;;;5024291;28;20026;-83
2022/03/06 07:33:14;;;;;;;26.80;12.18;;;-0.90;93.50;;;;;;5008242;28;20026;-82
2022/03/06 07:35:40;;;;;;;29.17;13.32;;;-0.90;93.00;;;;;;5024632;28;20014;-81
2022/03/06 07:38:05;;;;;;;24.35;11.93;;;-0.80;92.50;;;;;;5034845;28;20028;-81
2022/03/06 07:40:31;;;;;;;23.92;12.93;;;-0.80;92.40;;;;;;5025267;28;20098;-82
2022/03/06 07:42:57;;;;;;;21.90;11.30;;;-0.60;92.60;;;;;;5007451;28;20030;-83
2022/03/06 07:45:23;;;;;;;26.10;12.68;;;-0.50;92.60;;;;;;5008334;28;20034;-82
2022/03/06 07:47:49;;;;;;;21.95;11.00;;;-0.30;92.40;;;;;;5003554;28;20049;-82
2022/03/06 07:50:15;;;;;;;26.90;12.88;;;-0.10;91.70;;;;;;5014738;28;20014;-80
2022/03/06 07:52:41;;;;;;;28.38;12.68;;;-0.10;90.90;;;;;;5032568;28;20140;-81
2022/03/06 07:55:08;;;;;;;30.05;13.57;;;0.00;91.00;;;;;;5037943;28;20089;-79
2022/03/06 07:57:34;;;;;;;27.95;12.40;;;0.10;90.70;;;;;;5033558;28;20061;-81
2022/03/06 08:00:00;;;;;;;24.73;11.75;;;0.20;90.50;;;;;;5038860;28;20031;-80
2022/03/06 08:02:26;;;;;;;22.98;11.15;;;0.30;90.00;;;;;;5014987;28;20044;-82
2022/03/06 08:04:53;;;;;;;22.52;11.20;;;0.30;89.60;;;;;;5007197;28;20030;-82
2022/03/06 08:07:20;;;;;;;23.65;11.77;;;0.50;89.50;;;;;;5004989;28;20050;-82
2022/03/06 08:09:47;;;;;;;21.63;11.13;;;0.50;86.90;;;;;;5005514;28;20523;-82
2022/03/06 08:12:13;;;;;;;24.92;12.27;;;0.60;86.70;;;;;;5007544;28;20022;-82
2022/03/06 08:14:39;;;;;;;24.75;11.65;;;0.60;86.40;;;;;;5006654;28;20399;-81
2022/03/06 08:17:04;;;;;;;25.77;12.38;;;0.80;85.20;;;;;;5006374;28;20027;-82
2022/03/06 08:19:30;;;;;;;21.92;11.27;;;0.90;85.70;;;;;;5003189;28;20058;-82
2022/03/06 08:21:57;;;;;;;22.20;11.32;;;1.10;84.50;;;;;;5004229;28;20373;-82
2022/03/06 08:24:23;;;;;;;21.23;10.85;;;1.20;83.20;;;;;;5004707;28;20086;-81
2022/03/06 08:26:48;;;;;;;20.40;11.18;;;1.40;83.60;;;;;;5005161;28;20030;-81
2022/03/06 08:29:14;;;;;;;21.92;11.02;;;1.80;83.00;;;;;;5004160;28;20027;-81
2022/03/06 08:31:40;;;;;;;20.67;11.18;;;1.90;80.00;;;;;;5004940;28;20026;-82
2022/03/06 08:34:06;;;;;;;25.20;12.35;;;1.90;78.80;;;;;;5005110;28;20030;-81
2022/03/06 08:36:31;;;;;;;20.92;11.70;;;1.90;78.60;;;;;;5005920;28;20022;-83
2022/03/06 08:38:58;;;;;;;19.35;10.93;;;2.10;79.00;;;;;;5006217;28;20117;-81
2022/03/06 08:41:23;;;;;;;23.40;11.10;;;2.30;77.90;;;;;;5005807;28;20034;-81
2022/03/06 08:43:50;;;;;;;19.52;10.43;;;2.40;75.40;;;;;;5003372;28;20037;-82
2022/03/06 08:46:16;;;;;;;23.13;11.30;;;2.50;75.50;;;;;;5002872;28;20030;-82
2022/03/06 08:48:41;;;;;;;22.75;11.85;;;2.60;75.40;;;;;;5003859;28;20033;-81
2022/03/06 08:51:07;;;;;;;20.45;11.15;;;2.70;73.70;;;;;;5004918;28;20030;-81
2022/03/06 08:53:33;;;;;;;22.30;10.93;;;3.00;73.70;;;;;;5008099;28;20029;-81
2022/03/06 08:56:00;;;;;;;19.30;9.90;;;3.20;72.20;;;;;;5018586;28;20030;-81
2022/03/06 08:58:27;;;;;;;18.73;11.07;;;3.30;71.10;;;;;;5007550;28;20045;-82
2022/03/06 09:00:53;;;;;;;23.02;10.52;;;3.30;67.90;;;;;;5018002;28;20038;-81
2022/03/06 09:03:19;;;;;;;20.58;10.65;;;3.20;67.20;;;;;;5007933;28;20030;-81
2022/03/06 09:05:44;;;;;;;19.50;10.73;;;3.10;67.40;;;;;;5007128;28;20098;-82
2022/03/06 09:08:11;;;;;;;19.23;9.95;;;3.30;67.70;;;;;;5014857;28;20035;-82
2022/03/06 09:10:39;;;;;;;19.60;9.70;;;3.40;65.20;;;;;;5020443;28;20036;-82
2022/03/06 09:13:06;;;;;;;19.95;10.10;;;3.50;64.90;;;;;;5019884;28;20022;-81
2022/03/06 09:15:32;;;;;;;17.58;10.07;;;3.40;63.80;;;;;;5018567;28;20056;-83
2022/03/06 09:17:58;;;;;;;20.65;10.90;;;3.40;64.30;;;;;;5022637;28;20033;-81
2022/03/06 09:20:25;;;;;;;18.38;10.68;;;3.60;64.70;;;;;;5023280;28;20030;-83
2022/03/06 09:22:51;;;;;;;18.73;10.20;;;3.80;64.40;;;;;;5024557;28;20022;-86
2022/03/06 09:25:17;;;;;;;17.52;9.07;;;4.20;63.10;;;;;;5024211;28;20028;-82
2022/03/06 09:27:43;;;;;;;19.63;10.27;;;4.40;62.10;;;;;;5023647;28;20030;-83
2022/03/06 09:30:09;;;;;;;19.05;9.32;;;4.80;61.10;;;;;;5022597;28;20030;-83
2022/03/06 09:32:35;;;;;;;15.80;8.70;;;5.10;60.30;;;;;;5024151;28;20029;-84
2022/03/06 09:35:01;;;;;;;17.00;9.15;;;5.30;59.30;;;;;;5021717;28;20017;-82
2022/03/06 09:37:27;;;;;;;18.38;8.88;;;5.40;57.80;;;;;;5024233;28;20086;-83
2022/03/06 09:39:53;;;;;;;16.23;9.52;;;5.30;57.00;;;;;;5028098;28;20034;-82
2022/03/06 09:42:21;;;;;;;15.60;8.25;;;5.20;55.30;;;;;;5031103;28;20022;-82
2022/03/06 09:44:48;;;;;;;16.63;9.23;;;5.20;55.70;;;;;;5024656;28;20502;-82
2022/03/06 09:47:14;;;;;;;15.63;9.18;;;5.10;53.50;;;;;;5023501;28;20026;-84
2022/03/06 09:49:43;;;;;;;18.15;9.40;;;4.80;53.10;;;;;;5025862;28;20037;-82
2022/03/06 09:52:09;;;;;;;17.25;9.50;;;4.60;53.90;;;;;;5020960;28;20030;-83
2022/03/06 09:54:38;;;;;;;14.65;8.80;;;4.50;54.40;;;;;;5024847;28;20491;-82
2022/03/06 09:57:05;;;;;;;20.50;9.88;;;4.60;55.00;;;;;;5029900;28;20018;-82
2022/03/06 09:59:31;;;;;;;16.50;8.85;;;5.00;54.80;;;;;;5034470;28;20049;-83
2022/03/06 10:02:02;;;;;;;20.00;9.18;;;5.30;54.20;;;;;;5023859;28;20029;-82
2022/03/06 10:04:30;;;;;;;16.30;8.90;;;5.40;52.10;;;;;;5024270;28;20026;-83
2022/03/06 10:07:06;;;;;;;15.25;8.07;;;5.30;51.80;;;;;;5026074;28;20033;-82
2022/03/06 10:09:43;;;;;;;14.82;8.35;;;5.40;51.70;;;;;;5026383;28;20033;-82
2022/03/06 10:12:23;;;;;;;13.88;8.10;;;5.30;50.00;;;;;;5024918;28;20044;-82
2022/03/06 10:14:51;;;;;;;12.75;8.00;;;5.20;50.50;;;;;;5026680;28;20026;-82
2022/03/06 10:17:22;;;;;;;16.52;8.30;;;5.10;50.30;;;;;;5028812;28;20029;-83
2022/03/06 10:19:52;;;;;;;17.13;9.23;;;5.10;50.40;;;;;;5042626;28;20065;-83
2022/03/06 10:22:21;;;;;;;12.95;7.80;;;5.20;50.00;;;;;;5028965;28;20034;-83
2022/03/06 10:24:51;;;;;;;14.77;7.97;;;5.30;50.20;;;;;;5025858;28;20037;-83
2022/03/06 10:27:47;;;;;;;14.23;8.15;;;5.60;49.80;;;;;;5025377;28;20036;-82
2022/03/06 10:30:29;;;;;;;14.30;8.27;;;5.90;49.70;;;;;;5027895;28;20029;-82
2022/03/06 10:33:04;;;;;;;15.68;9.02;;;6.10;49.20;;;;;;5026372;28;20018;-83
2022/03/06 10:35:34;;;;;;;14.02;8.23;;;6.20;48.20;;;;;;5027814;28;20026;-82
2022/03/06 10:38:01;;;;;;;20.05;10.07;;;6.10;47.80;;;;;;5027525;28;20076;-83
2022/03/06 10:40:38;;;;;;;18.35;9.20;;;6.00;48.40;;;;;;5027928;28;20022;-82
2022/03/06 10:43:19;;;;;;;16.17;9.25;;;5.90;49.30;;;;;;5041618;28;20117;-82
2022/03/06 10:45:46;;;;;;;16.40;9.45;;;5.80;49.40;;;;;;5027832;28;20053;-83
2022/03/06 10:48:12;;;;;;;15.88;8.90;;;5.60;49.60;;;;;;5027255;28;20026;-83
2022/03/06 10:50:38;;;;;;;15.30;9.13;;;5.70;50.00;;;;;;5025816;28;20562;-82
2022/03/06 10:53:24;;;;;;;16.95;9.65;;;5.80;50.00;;;;;;5027690;28;20072;-82
2022/03/06 10:55:51;;;;;;;12.68;7.75;;;5.70;48.90;;;;;;5027168;28;20026;-83
2022/03/06 10:58:19;;;;;;;17.02;9.50;;;5.80;50.30;;;;;;5038428;28;20041;-83
2022/03/06 11:00:45;;;;;;;15.85;9.18;;;5.90;49.60;;;;;;5034749;28;20033;-83
2022/03/06 11:03:13;;;;;;;16.33;9.43;;;5.80;49.30;;;;;;5024996;28;20022;-82
2022/03/06 11:05:46;;;;;;;17.13;8.75;;;5.70;49.80;;;;;;5028673;28;20045;-83
2022/03/06 11:08:17;;;;;;;14.90;8.95;;;5.80;49.00;;;;;;5024880;28;20034;-82
2022/03/06 11:10:43;;;;;;;14.27;8.93;;;5.60;49.60;;;;;;4986402;28;20022;-83
2022/03/06 11:13:14;;;;;;;16.02;9.20;;;5.60;49.90;;;;;;4985737;28;20022;-82
2022/03/06 11:15:40;;;;;;;15.05;9.30;;;5.70;50.30;;;;;;4984814;28;20057;-82
2022/03/06 11:18:06;;;;;;;15.32;8.90;;;5.90;49.40;;;;;;4984614;28;20392;-81
2022/03/06 11:20:34;;;;;;;15.40;9.00;;;6.10;48.70;;;;;;5026923;23;21153;-83
2022/03/06 11:23:34;;;;;;;14.27;8.75;;;6.30;49.00;;;;;;5016938;28;20045;-81
2022/03/06 11:26:09;;;;;;;13.50;8.30;;;6.30;48.10;;;;;;5037700;28;20026;-82
2022/03/06 11:29:25;;;;;;;15.68;9.20;;;6.10;48.20;;;;;;5033098;28;20066;-84
2022/03/06 11:31:53;;;;;;;15.25;9.40;;;6.10;47.60;;;;;;5017613;28;20025;-84
2022/03/06 11:34:28;;;;;;;19.23;9.85;;;6.10;48.70;;;;;;5017887;28;20054;-85
2022/03/06 11:36:54;;;;;;;13.00;8.52;;;6.30;48.00;;;;;;5019483;28;20026;-86
2022/03/06 11:39:29;;;;;;;16.63;9.50;;;6.50;47.70;;;;;;5036392;28;20034;-81
2022/03/06 11:42:18;;;;;;;13.95;8.48;;;6.20;47.90;;;;;;5036112;28;20025;-84
2022/03/06 11:44:49;;;;;;;16.60;9.60;;;5.70;48.50;;;;;;4991533;28;20093;-83
2022/03/06 11:47:21;;;;;;;16.90;9.02;;;5.50;49.10;;;;;;5036290;28;20034;-83
2022/03/06 11:50:01;;;;;;;14.88;8.45;;;5.50;49.20;;;;;;5036411;28;20026;-83
2022/03/06 11:52:27;;;;;;;15.70;9.20;;;5.60;48.60;;;;;;5039069;28;20038;-85
2022/03/06 11:54:54;;;;;;;13.35;8.30;;;5.40;49.20;;;;;;5024676;28;20048;-85
2022/03/06 11:57:40;;;;;;;15.13;8.80;;;5.40;49.10;;;;;;5037002;28;20041;-85
2022/03/06 12:00:26;;;;;;;13.18;8.13;;;5.70;48.50;;;;;;5017635;28;20077;-85
2022/03/06 12:03:00;;;;;;;17.05;9.32;;;6.10;49.00;;;;;;5017616;28;20031;-83
2022/03/06 12:05:46;;;;;;;14.75;8.63;;;6.10;47.40;;;;;;5017445;28;20053;-85
2022/03/06 12:08:12;;;;;;;16.13;9.02;;;6.10;47.40;;;;;;5022467;28;20085;-84
2022/03/06 12:10:40;;;;;;;16.17;9.18;;;6.10;47.10;;;;;;5019617;28;20061;-84
2022/03/06 12:13:26;;;;;;;13.32;8.50;;;6.00;47.80;;;;;;5036792;28;20056;-83
2022/03/06 12:16:07;;;;;;;12.23;8.30;;;6.00;47.20;;;;;;5036713;28;20036;-83
2022/03/06 12:18:34;;;;;;;11.32;7.35;;;6.20;47.90;;;;;;5019140;28;20033;-83
2022/03/06 12:21:16;;;;;;;14.40;7.75;;;6.50;47.60;;;;;;5036172;28;20116;-83
2022/03/06 12:23:42;;;;;;;13.20;8.45;;;6.60;46.30;;;;;;5027529;28;20036;-83
2022/03/06 12:26:08;;;;;;;11.45;7.55;;;6.80;45.90;;;;;;5036320;28;20021;-84
2022/03/06 12:28:43;;;;;;;12.27;7.15;;;7.10;45.60;;;;;;5018604;28;20041;-83
2022/03/06 12:31:35;;;;;;;12.23;7.55;;;7.50;44.90;;;;;;5018733;28;20094;-84
2022/03/06 12:34:21;;;;;;;11.77;7.90;;;7.60;43.50;;;;;;5018221;28;20072;-85
2022/03/06 12:36:54;;;;;;;13.50;8.65;;;7.60;43.80;;;;;;5036682;28;20082;-84